createdAt,value
2022-09-07T00:00:42.742Z,8.37
2022-09-07T00:03:10.425Z,8.36
2022-09-07T00:05:47.896Z,8.39
2022-09-07T00:08:16.046Z,8.20
2022-09-07T00:10:53.982Z,8.31
2022-09-07T00:13:21.580Z,8.32
2022-09-07T00:15:48.825Z,8.37
2022-09-07T00:18:15.892Z,8.38
2022-09-07T00:20:42.998Z,8.40
2022-09-07T00:23:10.069Z,8.42
2022-09-07T00:25:39.446Z,8.43
2022-09-07T00:28:08.115Z,8.40
2022-09-07T00:30:41.876Z,8.32
2022-09-07T00:33:09.909Z,8.34
2022-09-07T00:35:41.330Z,8.38
2022-09-07T00:38:08.925Z,8.37
2022-09-07T00:40:36.086Z,8.38
2022-09-07T00:43:03.544Z,8.40
2022-09-07T00:45:30.811Z,8.41
2022-09-07T00:48:00.739Z,8.38
2022-09-07T00:50:33.674Z,8.39
2022-09-07T00:53:11.300Z,8.39
2022-09-07T00:55:43.052Z,8.38
2022-09-07T00:58:11.123Z,8.32
2022-09-07T01:00:41.029Z,8.33
2022-09-07T01:03:10.726Z,8.28
2022-09-07T01:05:52.753Z,8.19
2022-09-07T01:08:20.136Z,8.21
2022-09-07T01:10:47.504Z,8.21
2022-09-07T01:13:15.290Z,8.19
2022-09-07T01:16:00.948Z,8.13
2022-09-07T01:18:45.605Z,8.13
2022-09-07T01:21:24.335Z,8.12
2022-09-07T01:24:13.297Z,8.12
2022-09-07T01:26:52.335Z,8.08
2022-09-07T01:29:56.165Z,8.06
2022-09-07T01:33:02.445Z,8.04
2022-09-07T01:35:55.344Z,8.00
2022-09-07T01:38:32.096Z,8.00
2022-09-07T01:41:07.546Z,7.88
2022-09-07T01:43:43.612Z,7.90
2022-09-07T01:46:27.858Z,7.84
2022-09-07T01:49:02.751Z,7.87
2022-09-07T01:51:33.651Z,7.86
2022-09-07T01:54:11.747Z,7.79
2022-09-07T01:56:42.662Z,7.78
2022-09-07T01:59:23.152Z,7.77
2022-09-07T02:01:54.587Z,7.71
2022-09-07T02:04:53.157Z,7.68
2022-09-07T02:07:27.501Z,7.66
2022-09-07T02:09:59.634Z,7.64
2022-09-07T02:12:26.546Z,7.66
2022-09-07T02:14:59.731Z,7.62
2022-09-07T02:17:34.281Z,7.61
2022-09-07T02:20:10.359Z,7.64
2022-09-07T02:22:43.711Z,7.61
2022-09-07T02:25:16.563Z,7.48
2022-09-07T02:27:47.516Z,7.55
2022-09-07T02:30:14.838Z,7.55
2022-09-07T02:32:42.082Z,7.60
2022-09-07T02:35:09.690Z,7.65
2022-09-07T02:37:38.584Z,7.70
2022-09-07T02:40:07.011Z,7.67
2022-09-07T02:42:35.566Z,7.73
2022-09-07T02:45:06.512Z,7.77
2022-09-07T02:48:18.099Z,7.83
2022-09-07T02:51:04.565Z,7.85
2022-09-07T02:54:23.754Z,7.91
2022-09-07T02:57:02.935Z,7.93
2022-09-07T02:59:38.642Z,7.97
2022-09-07T03:02:25.872Z,8.03
2022-09-07T03:05:03.336Z,8.05
2022-09-07T03:07:42.177Z,8.05
2022-09-07T03:10:13.980Z,8.11
2022-09-07T03:12:40.996Z,8.06
2022-09-07T03:15:12.139Z,8.11
2022-09-07T03:17:40.182Z,8.14
2022-09-07T03:20:07.815Z,8.11
2022-09-07T03:22:35.002Z,8.15
2022-09-07T03:25:04.373Z,8.13
2022-09-07T03:27:33.000Z,8.08
2022-09-07T03:30:00.156Z,8.03
2022-09-07T03:32:36.106Z,8.19
2022-09-07T03:35:04.548Z,8.24
2022-09-07T03:37:31.844Z,8.28
2022-09-07T03:39:58.919Z,8.30
2022-09-07T03:42:25.968Z,8.33
2022-09-07T03:44:52.938Z,8.20
2022-09-07T03:47:19.906Z,8.25
2022-09-07T03:49:46.911Z,8.33
2022-09-07T03:52:13.880Z,8.42
2022-09-07T03:54:40.947Z,8.43
2022-09-07T03:57:08.383Z,8.38
2022-09-07T03:59:35.653Z,8.26
2022-09-07T04:02:02.712Z,8.37
2022-09-07T04:04:30.627Z,8.30
2022-09-07T04:06:57.828Z,8.31
2022-09-07T04:09:25.037Z,8.36
2022-09-07T04:11:52.025Z,8.24
2022-09-07T04:14:19.114Z,8.25
2022-09-07T04:16:46.192Z,8.28
2022-09-07T04:19:13.227Z,8.27
2022-09-07T04:21:40.370Z,8.31
2022-09-07T04:24:07.397Z,8.44
2022-09-07T04:26:35.751Z,8.65
2022-09-07T04:29:04.190Z,8.69
2022-09-07T04:31:32.936Z,8.86
2022-09-07T04:34:00.031Z,9.01
2022-09-07T04:36:28.712Z,9.12
2022-09-07T04:39:05.837Z,9.47
2022-09-07T04:41:34.402Z,9.50
2022-09-07T04:44:03.182Z,9.65
2022-09-07T04:46:35.810Z,9.69
2022-09-07T04:49:08.731Z,9.48
2022-09-07T04:51:36.990Z,9.74
2022-09-07T04:54:04.997Z,10.17
2022-09-07T04:56:33.118Z,10.73
2022-09-07T04:59:02.338Z,10.78
2022-09-07T05:01:29.978Z,10.93
2022-09-07T05:03:59.097Z,10.93
2022-09-07T05:06:26.098Z,11.04
2022-09-07T05:08:54.228Z,10.95
2022-09-07T05:11:28.686Z,11.02
2022-09-07T05:14:02.221Z,10.70
2022-09-07T05:16:30.750Z,10.89
2022-09-07T05:19:00.005Z,11.00
2022-09-07T05:21:33.035Z,10.90
2022-09-07T05:24:01.158Z,11.05
2022-09-07T05:26:30.097Z,11.14
2022-09-07T05:31:46.323Z,11.02
2022-09-07T05:36:56.125Z,10.88
2022-09-07T05:39:23.399Z,10.83
2022-09-07T05:41:50.356Z,10.80
2022-09-07T05:47:04.291Z,11.48
2022-09-07T05:49:32.350Z,11.38
2022-09-07T05:51:59.304Z,11.27
2022-09-07T05:54:26.356Z,11.38
2022-09-07T05:56:53.278Z,11.44
2022-09-07T05:59:20.251Z,11.59
2022-09-07T06:01:47.362Z,11.81
2022-09-07T06:04:14.414Z,12.14
2022-09-07T06:06:41.425Z,12.02
2022-09-07T06:09:11.438Z,12.87
2022-09-07T06:11:38.724Z,12.96
2022-09-07T06:14:05.635Z,12.77
2022-09-07T06:16:35.170Z,12.83
2022-09-07T06:19:07.146Z,12.86
2022-09-07T06:21:38.589Z,13.24
2022-09-07T06:24:06.672Z,13.08
2022-09-07T06:26:33.865Z,13.33
2022-09-07T06:29:02.808Z,14.72
2022-09-07T06:31:30.108Z,16.86
2022-09-07T06:33:57.507Z,18.78
2022-09-07T06:36:29.448Z,20.52
2022-09-07T06:38:59.153Z,20.94
2022-09-07T06:44:20.949Z,19.96
2022-09-07T06:47:03.948Z,19.79
2022-09-07T06:49:31.620Z,19.41
2022-09-07T06:51:58.647Z,18.92
2022-09-07T06:57:12.572Z,17.78
2022-09-07T06:59:39.597Z,18.01
2022-09-07T07:02:07.511Z,18.15
2022-09-07T07:04:40.279Z,17.52
2022-09-07T07:07:14.302Z,17.78
2022-09-07T07:09:42.259Z,18.25
2022-09-07T07:12:10.669Z,18.07
2022-09-07T07:14:40.962Z,18.22
2022-09-07T07:17:11.217Z,17.29
2022-09-07T07:19:38.445Z,17.59
2022-09-07T07:24:52.591Z,17.57
2022-09-07T07:27:21.612Z,17.53
2022-09-07T07:29:48.693Z,17.49
2022-09-07T07:32:16.033Z,16.98
2022-09-07T07:34:42.938Z,17.31
2022-09-07T07:37:09.850Z,16.73
2022-09-07T07:42:25.954Z,16.14
2022-09-07T07:47:39.946Z,17.05
2022-09-07T07:55:43.972Z,17.53
2022-09-07T07:58:11.327Z,16.44
2022-09-07T08:00:53.846Z,16.23
2022-09-07T08:03:23.618Z,16.54
2022-09-07T08:05:50.843Z,17.50
2022-09-07T08:08:19.796Z,18.35
2022-09-07T08:10:47.983Z,18.55
2022-09-07T08:13:16.285Z,19.26
2022-09-07T08:15:46.496Z,19.73
2022-09-07T08:18:14.849Z,20.13
2022-09-07T08:20:42.152Z,21.23
2022-09-07T08:23:09.253Z,20.78
2022-09-07T08:25:36.635Z,20.99
2022-09-07T08:28:04.224Z,22.46
2022-09-07T08:30:31.360Z,22.95
2022-09-07T08:32:58.439Z,23.29
2022-09-07T08:35:25.370Z,23.34
2022-09-07T08:37:52.294Z,22.70
2022-09-07T08:40:20.483Z,22.98
2022-09-07T08:43:10.720Z,22.44
2022-09-07T08:45:46.480Z,24.01
2022-09-07T08:48:18.922Z,24.80
2022-09-07T08:50:56.365Z,24.25
2022-09-07T08:53:25.684Z,24.38
2022-09-07T08:56:09.666Z,22.76
2022-09-07T08:58:49.778Z,21.56
2022-09-07T09:01:35.677Z,20.05
2022-09-07T09:04:19.588Z,19.06
2022-09-07T09:07:21.594Z,18.96
2022-09-07T09:10:03.771Z,19.33
2022-09-07T09:12:37.791Z,19.03
2022-09-07T09:15:23.602Z,18.43
2022-09-07T09:18:05.194Z,17.87
2022-09-07T09:20:41.037Z,19.30
2022-09-07T09:23:14.256Z,19.05
2022-09-07T09:25:50.736Z,18.70
2022-09-07T09:28:17.908Z,18.61
2022-09-07T09:30:44.980Z,19.09
2022-09-07T09:33:19.198Z,19.46
2022-09-07T09:35:51.514Z,20.87
2022-09-07T09:38:39.619Z,19.79
2022-09-07T09:41:09.572Z,19.51
2022-09-07T09:43:48.094Z,19.88
2022-09-07T09:46:23.057Z,19.91
2022-09-07T09:49:18.558Z,19.75
2022-09-07T09:54:43.550Z,19.53
2022-09-07T09:57:39.840Z,19.08
2022-09-07T10:00:11.504Z,18.10
2022-09-07T10:05:36.278Z,17.58
2022-09-07T10:08:16.757Z,16.90
2022-09-07T10:10:56.231Z,17.45
2022-09-07T10:13:36.576Z,17.15
2022-09-07T10:16:06.314Z,16.66
2022-09-07T10:18:38.708Z,16.77
2022-09-07T10:21:14.683Z,16.57
2022-09-07T10:23:41.977Z,16.24
2022-09-07T10:26:22.062Z,16.19
2022-09-07T10:31:45.320Z,16.40
2022-09-07T10:34:33.302Z,15.61
2022-09-07T10:37:08.546Z,15.35
2022-09-07T10:39:45.896Z,15.31
2022-09-07T10:42:35.761Z,15.23
2022-09-07T10:45:14.847Z,14.72
2022-09-07T10:47:48.031Z,14.36
2022-09-07T10:50:28.662Z,14.16
2022-09-07T10:53:46.750Z,14.16
2022-09-07T10:56:30.839Z,14.42
2022-09-07T10:59:18.970Z,14.13
2022-09-07T11:02:27.251Z,13.86
2022-09-07T11:05:06.329Z,13.61
2022-09-07T11:07:51.740Z,13.59
2022-09-07T11:10:33.685Z,13.54
2022-09-07T11:13:05.473Z,13.55
2022-09-07T11:15:44.937Z,13.44
2022-09-07T11:18:19.981Z,13.34
2022-09-07T11:20:55.410Z,13.35
2022-09-07T11:23:43.756Z,12.98
2022-09-07T11:26:17.781Z,12.69
2022-09-07T11:29:29.301Z,12.74
2022-09-07T11:31:41.827Z,12.40
2022-09-07T11:34:26.253Z,12.40
2022-09-07T11:37:07.896Z,12.55
2022-09-07T11:39:47.472Z,12.06
2022-09-07T11:42:44.266Z,12.14
2022-09-07T11:45:27.892Z,12.15
2022-09-07T11:48:09.646Z,12.03
2022-09-07T11:50:46.372Z,12.00
2022-09-07T11:53:22.229Z,12.02
2022-09-07T11:55:55.784Z,12.08
2022-09-07T11:58:37.729Z,12.05
2022-09-07T12:01:38.298Z,11.69
2022-09-07T12:04:15.455Z,11.48
2022-09-07T12:07:24.148Z,11.37
2022-09-07T12:09:51.095Z,11.19
2022-09-07T12:12:56.765Z,11.01
2022-09-07T12:15:29.465Z,10.84
2022-09-07T12:17:59.402Z,10.92
2022-09-07T12:20:39.297Z,11.00
2022-09-07T12:23:25.536Z,10.74
2022-09-07T12:25:53.328Z,10.65
2022-09-07T12:28:26.190Z,10.63
2022-09-07T12:30:53.281Z,10.64
2022-09-07T12:33:26.957Z,10.79
2022-09-07T12:35:58.041Z,10.79
2022-09-07T12:38:31.201Z,10.76
2022-09-07T12:41:05.347Z,10.73
2022-09-07T12:43:34.059Z,10.50
2022-09-07T12:46:02.054Z,10.75
2022-09-07T12:48:43.676Z,10.53
2022-09-07T12:54:27.407Z,10.58
2022-09-07T13:00:07.536Z,10.54
2022-09-07T13:02:37.449Z,10.60
2022-09-07T13:05:10.569Z,10.69
2022-09-07T13:07:47.437Z,10.81
2022-09-07T13:10:39.856Z,10.65
2022-09-07T13:13:15.826Z,10.84
2022-09-07T13:15:46.269Z,10.73
2022-09-07T13:18:28.975Z,10.78
2022-09-07T13:21:08.134Z,10.66
2022-09-07T13:23:43.315Z,10.83
2022-09-07T13:26:13.758Z,10.94
2022-09-07T13:28:55.997Z,10.99
2022-09-07T13:31:45.336Z,11.03
2022-09-07T13:34:34.351Z,10.96
2022-09-07T13:37:03.252Z,10.99
2022-09-07T13:39:39.634Z,11.00
2022-09-07T13:42:07.485Z,10.92
2022-09-07T13:44:34.803Z,10.88
2022-09-07T13:47:08.925Z,10.98
2022-09-07T13:50:17.780Z,10.78
2022-09-07T13:53:03.313Z,10.85
2022-09-07T13:56:07.542Z,10.84
2022-09-07T13:58:47.965Z,10.92
2022-09-07T14:01:28.511Z,10.92
2022-09-07T14:04:07.681Z,10.95
2022-09-07T14:06:36.579Z,11.04
2022-09-07T14:09:09.471Z,11.12
2022-09-07T14:11:36.507Z,10.98
2022-09-07T14:14:36.498Z,11.07
2022-09-07T14:17:07.360Z,11.16
2022-09-07T14:19:48.137Z,11.15
2022-09-07T14:22:18.124Z,11.25
2022-09-07T14:25:03.211Z,11.33
2022-09-07T14:27:41.137Z,11.23
2022-09-07T14:30:26.624Z,11.34
2022-09-07T14:32:55.238Z,11.41
2022-09-07T14:35:25.584Z,11.44
2022-09-07T14:37:53.630Z,11.37
2022-09-07T14:40:23.110Z,11.33
2022-09-07T14:42:51.870Z,11.40
2022-09-07T14:45:26.460Z,11.29
2022-09-07T14:47:55.491Z,11.36
2022-09-07T14:50:35.011Z,11.38
2022-09-07T14:56:08.224Z,11.30
2022-09-07T14:58:35.577Z,11.21
2022-09-07T15:04:18.237Z,11.23
2022-09-07T15:07:02.655Z,11.23
2022-09-07T15:09:39.068Z,11.15
2022-09-07T15:12:27.279Z,11.15
2022-09-07T15:15:26.067Z,11.13
2022-09-07T15:18:03.083Z,11.11
2022-09-07T15:20:44.429Z,11.11
2022-09-07T15:23:14.014Z,11.15
2022-09-07T15:25:45.378Z,11.08
2022-09-07T15:34:16.047Z,11.02
2022-09-07T15:36:48.771Z,10.93
2022-09-07T15:39:21.872Z,10.91
2022-09-07T15:41:49.207Z,10.92
2022-09-07T15:44:20.402Z,10.99
2022-09-07T15:49:37.194Z,10.92
2022-09-07T15:52:06.501Z,10.90
2022-09-07T15:54:35.011Z,10.86
2022-09-07T15:59:50.947Z,10.80
2022-09-07T16:05:07.130Z,10.76
2022-09-07T16:10:21.301Z,10.76
2022-09-07T16:13:10.457Z,10.76
2022-09-07T16:15:35.604Z,10.74
2022-09-07T16:18:02.885Z,10.77
2022-09-07T16:20:32.953Z,10.79
2022-09-07T16:23:16.142Z,10.77
2022-09-07T16:25:56.383Z,10.81
2022-09-07T16:28:23.389Z,10.83
2022-09-07T16:30:50.387Z,10.85
2022-09-07T16:33:17.418Z,10.86
2022-09-07T16:35:44.472Z,10.90
2022-09-07T16:40:59.933Z,10.90
2022-09-07T16:43:27.588Z,10.90
2022-09-07T16:46:05.255Z,10.77
2022-09-07T16:48:34.779Z,10.90
2022-09-07T16:51:03.452Z,10.91
2022-09-07T16:53:33.025Z,10.92
2022-09-07T16:56:05.495Z,10.89
2022-09-07T16:58:36.780Z,10.81
2022-09-07T17:01:06.694Z,10.82
2022-09-07T17:03:34.783Z,10.81
2022-09-07T17:06:03.745Z,10.76
2022-09-07T17:08:30.781Z,10.73
2022-09-07T17:11:02.690Z,10.67
2022-09-07T17:13:32.080Z,10.58
2022-09-07T17:16:13.079Z,10.48
2022-09-07T17:21:33.897Z,10.37
2022-09-07T17:24:04.187Z,10.41
2022-09-07T17:26:31.615Z,10.41
2022-09-07T17:29:00.790Z,10.39
2022-09-07T17:34:23.112Z,10.35
2022-09-07T17:36:51.301Z,10.31
2022-09-07T17:39:19.563Z,10.35
2022-09-07T17:41:48.649Z,10.33
2022-09-07T17:44:16.057Z,10.29
2022-09-07T17:46:43.181Z,10.19
2022-09-07T17:49:12.478Z,10.13
2022-09-07T17:51:39.982Z,10.00
2022-09-07T17:54:11.569Z,9.94
2022-09-07T17:56:40.265Z,9.86
2022-09-07T18:01:54.855Z,9.67
2022-09-07T18:04:22.308Z,9.61
2022-09-07T18:06:49.359Z,9.55
2022-09-07T18:09:16.976Z,9.46
2022-09-07T18:11:45.731Z,9.38
2022-09-07T18:14:14.791Z,9.37
2022-09-07T18:16:43.458Z,9.33
2022-09-07T18:19:11.579Z,9.28
2022-09-07T18:21:42.200Z,9.24
2022-09-07T18:24:22.327Z,9.17
2022-09-07T18:26:52.333Z,9.15
2022-09-07T18:29:32.316Z,9.09
2022-09-07T18:32:08.715Z,9.07
2022-09-07T18:34:38.062Z,9.02
2022-09-07T18:37:06.148Z,9.04
2022-09-07T18:39:35.436Z,9.11
2022-09-07T18:42:02.779Z,9.19
2022-09-07T18:47:27.658Z,9.32
2022-09-07T18:49:56.268Z,9.29
2022-09-07T18:55:10.607Z,9.22
2022-09-07T18:57:38.354Z,9.13
2022-09-07T19:00:08.037Z,9.10
2022-09-07T19:02:36.027Z,8.96
2022-09-07T19:07:50.501Z,8.84
2022-09-07T19:10:17.893Z,8.87
2022-09-07T19:12:46.141Z,8.88
2022-09-07T19:15:14.250Z,8.93
2022-09-07T19:17:41.186Z,8.95
2022-09-07T19:20:08.720Z,8.93
2022-09-07T19:22:35.870Z,9.00
2022-09-07T19:25:02.783Z,9.05
2022-09-07T19:27:33.005Z,9.09
2022-09-07T19:30:00.171Z,9.16
2022-09-07T19:32:27.347Z,9.21
2022-09-07T19:34:55.531Z,9.25
2022-09-07T19:37:26.070Z,9.32
2022-09-07T19:39:56.854Z,9.40
2022-09-07T19:42:25.162Z,9.48
2022-09-07T19:44:52.891Z,9.51
2022-09-07T19:47:21.107Z,9.55
2022-09-07T19:49:48.092Z,9.64
2022-09-07T19:52:15.527Z,9.63
2022-09-07T19:54:42.648Z,9.70
2022-09-07T19:57:09.520Z,9.73
2022-09-07T19:59:36.452Z,9.77
2022-09-07T20:02:03.442Z,9.82
2022-09-07T20:04:30.695Z,9.84
2022-09-07T20:06:57.737Z,9.86
2022-09-07T20:09:24.931Z,9.87
2022-09-07T20:11:51.980Z,9.81
2022-09-07T20:14:19.315Z,9.67
2022-09-07T20:16:46.468Z,9.90
2022-09-07T20:19:15.046Z,9.89
2022-09-07T20:21:43.167Z,9.89
2022-09-07T20:24:14.723Z,9.87
2022-09-07T20:26:42.083Z,9.89
2022-09-07T20:29:27.743Z,9.88
2022-09-07T20:31:57.566Z,9.87
2022-09-07T20:34:24.830Z,9.82
2022-09-07T20:36:52.649Z,9.84
2022-09-07T20:39:20.478Z,9.86
2022-09-07T20:41:47.552Z,9.86
2022-09-07T20:44:14.846Z,9.80
2022-09-07T20:46:41.998Z,9.75
2022-09-07T20:49:09.672Z,9.67
2022-09-07T20:51:36.640Z,9.63
2022-09-07T20:54:03.977Z,9.57
2022-09-07T20:56:31.186Z,9.53
2022-09-07T20:59:00.380Z,9.44
2022-09-07T21:01:28.656Z,9.37
2022-09-07T21:03:58.140Z,9.34
2022-09-07T21:06:26.604Z,9.36
2022-09-07T21:08:54.765Z,9.37
2022-09-07T21:11:25.073Z,9.44
2022-09-07T21:13:57.200Z,9.48
2022-09-07T21:16:24.852Z,9.48
2022-09-07T21:18:55.208Z,9.51
2022-09-07T21:21:23.855Z,9.44
2022-09-07T21:23:59.552Z,9.57
2022-09-07T21:26:31.039Z,9.57
2022-09-07T21:29:03.915Z,9.54
2022-09-07T21:31:33.444Z,9.54
2022-09-07T21:34:02.416Z,9.51
2022-09-07T21:36:30.296Z,9.48
2022-09-07T21:38:57.434Z,9.48
2022-09-07T21:41:25.200Z,9.48
2022-09-07T21:44:01.353Z,9.47
2022-09-07T21:46:30.747Z,9.51
2022-09-07T21:48:58.572Z,9.53
2022-09-07T21:51:26.952Z,9.53
2022-09-07T21:53:55.617Z,9.57
2022-09-07T21:56:23.466Z,9.57
2022-09-07T21:58:55.533Z,9.61
2022-09-07T22:01:23.770Z,9.63
2022-09-07T22:03:59.622Z,9.65
2022-09-07T22:06:30.213Z,9.66
2022-09-07T22:08:57.271Z,9.70
2022-09-07T22:11:25.970Z,9.75
2022-09-07T22:13:57.643Z,9.76
2022-09-07T22:16:25.076Z,9.80
2022-09-07T22:18:52.651Z,9.75
2022-09-07T22:21:22.385Z,9.75
2022-09-07T22:23:51.791Z,9.68
2022-09-07T22:26:20.625Z,9.76
2022-09-07T22:28:47.834Z,9.76
2022-09-07T22:31:20.793Z,9.74
2022-09-07T22:33:49.717Z,9.74
2022-09-07T22:36:22.909Z,9.75
2022-09-07T22:38:53.171Z,9.75
2022-09-07T22:41:26.098Z,9.78
2022-09-07T22:43:53.385Z,9.73
2022-09-07T22:46:22.931Z,9.78
2022-09-07T22:48:50.649Z,9.78
2022-09-07T22:51:17.718Z,9.78
2022-09-07T22:53:44.707Z,9.81
2022-09-07T22:56:17.404Z,9.84
2022-09-07T22:58:50.394Z,9.86
2022-09-07T23:01:18.253Z,9.89
2022-09-07T23:03:45.924Z,9.92
2022-09-07T23:06:23.851Z,9.87
2022-09-07T23:08:52.657Z,9.90
2022-09-07T23:11:20.832Z,9.89
2022-09-07T23:13:55.692Z,9.94
2022-09-07T23:16:23.419Z,9.97
2022-09-07T23:18:50.607Z,9.97
2022-09-07T23:21:18.272Z,9.95
2022-09-07T23:23:50.793Z,9.98
2022-09-07T23:26:18.131Z,9.95
2022-09-07T23:28:45.185Z,9.95
2022-09-07T23:31:12.292Z,9.97
2022-09-07T23:33:39.570Z,10.00
2022-09-07T23:36:07.349Z,10.00
2022-09-07T23:38:34.514Z,10.07
2022-09-07T23:41:01.977Z,10.09
2022-09-07T23:43:31.458Z,10.11
2022-09-07T23:46:00.121Z,10.13
2022-09-07T23:48:27.853Z,10.15
2022-09-07T23:50:55.018Z,10.16
2022-09-07T23:53:22.504Z,10.16
2022-09-07T23:55:53.263Z,10.16
2022-09-07T23:58:21.826Z,10.16
